createdAt,value
2018-07-19T00:00:33.415Z,54.20
2018-07-19T00:03:02.231Z,54.15
2018-07-19T00:05:31.049Z,54.24
2018-07-19T00:07:59.941Z,54.49
2018-07-19T00:10:28.741Z,54.63
2018-07-19T00:12:57.582Z,54.45
2018-07-19T00:15:26.416Z,54.51
2018-07-19T00:17:55.248Z,53.65
2018-07-19T00:20:24.076Z,54.06
2018-07-19T00:22:52.903Z,53.86
2018-07-19T00:25:21.753Z,53.86
2018-07-19T00:27:50.609Z,53.98
2018-07-19T00:30:19.483Z,54.04
2018-07-19T00:32:48.349Z,54.23
2018-07-19T00:35:20.064Z,54.43
2018-07-19T00:37:48.896Z,54.74
2018-07-19T00:40:17.824Z,54.16
2018-07-19T00:42:46.616Z,54.23
2018-07-19T00:45:15.450Z,54.09
2018-07-19T00:47:44.285Z,53.85
2018-07-19T00:50:13.252Z,53.97
2018-07-19T00:52:42.266Z,54.38
2018-07-19T00:55:11.134Z,54.61
2018-07-19T00:57:40.084Z,54.28
2018-07-19T01:00:08.898Z,54.37
2018-07-19T01:02:37.769Z,54.17
2018-07-19T01:05:06.606Z,54.08
2018-07-19T01:07:35.449Z,53.94
2018-07-19T01:10:04.413Z,53.72
2018-07-19T01:12:33.431Z,53.89
2018-07-19T01:15:02.260Z,54.04
2018-07-19T01:17:31.093Z,52.57
2018-07-19T01:20:02.689Z,53.01
2018-07-19T01:22:31.534Z,52.01
2018-07-19T01:25:00.350Z,52.44
2018-07-19T01:27:29.170Z,51.49
2018-07-19T01:29:58.019Z,52.19
2018-07-19T01:32:26.883Z,51.87
2018-07-19T01:34:55.731Z,51.28
2018-07-19T01:37:24.544Z,51.56
2018-07-19T01:39:53.397Z,51.98
2018-07-19T01:43:17.992Z,52.03
2018-07-19T01:45:46.850Z,52.30
2018-07-19T01:48:15.676Z,52.01
2018-07-19T01:50:44.533Z,51.97
2018-07-19T01:53:13.389Z,51.49
2018-07-19T01:55:42.204Z,50.07
2018-07-19T01:58:11.050Z,50.74
2018-07-19T02:00:39.880Z,50.72
2018-07-19T02:03:08.725Z,50.91
2018-07-19T02:05:44.523Z,51.03
2018-07-19T02:08:13.357Z,50.89
2018-07-19T02:10:42.277Z,50.54
2018-07-19T02:13:11.077Z,50.80
2018-07-19T02:15:39.904Z,50.44
2018-07-19T02:18:08.786Z,50.24
2018-07-19T02:20:37.626Z,49.97
2018-07-19T02:23:06.685Z,50.74
2018-07-19T02:25:35.557Z,50.46
2018-07-19T02:29:08.392Z,50.83
2018-07-19T02:31:37.219Z,49.50
2018-07-19T02:34:06.156Z,50.53
2018-07-19T02:36:34.979Z,50.80
2018-07-19T02:39:06.541Z,49.77
2018-07-19T02:41:35.386Z,50.84
2018-07-19T02:44:04.488Z,50.95
2018-07-19T02:46:33.484Z,50.76
2018-07-19T02:49:02.345Z,50.88
2018-07-19T02:51:31.388Z,50.98
2018-07-19T02:54:00.265Z,50.40
2018-07-19T02:56:29.119Z,50.56
2018-07-19T02:58:57.934Z,50.92
2018-07-19T03:01:26.796Z,51.07
2018-07-19T03:03:55.621Z,51.23
2018-07-19T03:06:24.549Z,50.80
2018-07-19T03:08:53.374Z,50.85
2018-07-19T03:11:22.434Z,51.29
2018-07-19T03:13:54.153Z,51.17
2018-07-19T03:16:22.978Z,50.45
2018-07-19T03:18:51.845Z,50.84
2018-07-19T03:21:20.704Z,51.03
2018-07-19T03:23:49.519Z,50.33
2018-07-19T03:26:18.377Z,50.23
2018-07-19T03:28:47.231Z,50.14
2018-07-19T03:31:16.078Z,50.00
2018-07-19T03:33:44.949Z,49.25
2018-07-19T03:36:17.401Z,49.44
2018-07-19T03:38:46.236Z,49.84
2018-07-19T03:41:15.053Z,50.00
2018-07-19T03:43:43.885Z,49.51
2018-07-19T03:46:12.698Z,49.59
2018-07-19T03:48:41.520Z,49.65
2018-07-19T03:51:10.326Z,49.53
2018-07-19T03:53:39.155Z,49.01
2018-07-19T03:56:08.019Z,49.64
2018-07-19T03:58:36.840Z,50.04
2018-07-19T04:01:05.679Z,49.58
2018-07-19T04:03:34.499Z,49.35
2018-07-19T04:06:03.353Z,49.16
2018-07-19T04:08:32.160Z,48.95
2018-07-19T04:11:00.995Z,49.38
2018-07-19T04:13:29.872Z,48.89
2018-07-19T04:15:58.766Z,48.81
2018-07-19T04:18:27.597Z,48.98
2018-07-19T04:21:54.635Z,47.82
2018-07-19T04:24:23.482Z,48.01
2018-07-19T04:26:52.286Z,48.33
2018-07-19T04:29:22.127Z,48.59
2018-07-19T04:31:51.249Z,48.19
2018-07-19T04:34:20.230Z,47.57
2018-07-19T04:36:49.068Z,48.57
2018-07-19T04:39:17.899Z,49.00
2018-07-19T04:41:46.750Z,49.29
2018-07-19T04:44:22.726Z,49.56
2018-07-19T04:46:57.702Z,49.16
2018-07-19T04:49:28.005Z,49.30
2018-07-19T04:51:56.868Z,48.82
2018-07-19T04:54:25.706Z,49.16
2018-07-19T04:56:54.645Z,49.34
2018-07-19T04:59:23.483Z,48.82
2018-07-19T05:01:52.473Z,48.98
2018-07-19T05:04:21.172Z,49.10
2018-07-19T05:06:50.055Z,48.46
2018-07-19T05:09:18.892Z,49.05
2018-07-19T05:11:47.741Z,48.82
2018-07-19T05:14:16.588Z,49.26
2018-07-19T05:16:45.483Z,49.32
2018-07-19T05:19:14.293Z,49.03
2018-07-19T05:21:43.126Z,48.90
2018-07-19T05:24:11.966Z,48.55
2018-07-19T05:26:47.042Z,48.15
2018-07-19T05:29:15.869Z,48.43
2018-07-19T05:31:44.715Z,48.12
2018-07-19T05:34:13.554Z,47.54
2018-07-19T05:36:42.396Z,47.20
2018-07-19T05:39:12.920Z,47.54
2018-07-19T05:41:42.187Z,47.44
2018-07-19T05:44:11.706Z,46.34
2018-07-19T05:46:40.547Z,45.99
2018-07-19T05:49:09.362Z,45.20
2018-07-19T05:51:38.231Z,45.14
2018-07-19T05:54:07.172Z,45.15
2018-07-19T05:56:36.096Z,45.01
2018-07-19T05:59:05.008Z,44.60
2018-07-19T06:01:33.871Z,44.36
2018-07-19T06:04:02.694Z,43.70
2018-07-19T06:06:31.551Z,42.85
2018-07-19T06:09:00.403Z,42.41
2018-07-19T06:11:29.237Z,42.40
2018-07-19T06:13:58.102Z,42.20
2018-07-19T06:16:26.896Z,41.88
2018-07-19T06:18:55.738Z,41.29
2018-07-19T06:21:24.583Z,41.10
2018-07-19T06:23:53.434Z,40.42
2018-07-19T06:26:22.257Z,39.90
2018-07-19T06:28:51.110Z,39.67
2018-07-19T06:31:21.028Z,39.55
2018-07-19T06:33:49.844Z,39.58
2018-07-19T06:36:18.693Z,39.43
2018-07-19T06:38:47.792Z,39.47
2018-07-19T06:41:16.960Z,39.62
2018-07-19T06:43:48.791Z,39.46
2018-07-19T06:46:23.121Z,39.09
2018-07-19T06:48:52.220Z,37.91
2018-07-19T06:51:22.287Z,37.74
2018-07-19T06:53:54.521Z,37.47
2018-07-19T06:56:25.371Z,36.28
2018-07-19T06:58:54.644Z,35.67
2018-07-19T07:01:23.784Z,35.80
2018-07-19T07:03:55.043Z,36.02
2018-07-19T07:06:26.914Z,34.79
2018-07-19T07:08:58.989Z,34.55
2018-07-19T07:11:28.547Z,34.98
2018-07-19T07:13:57.518Z,34.66
2018-07-19T07:16:29.412Z,33.31
2018-07-19T07:18:58.641Z,30.92
2018-07-19T07:21:27.651Z,28.79
2018-07-19T07:23:56.822Z,26.09
2018-07-19T07:26:25.932Z,24.94
2018-07-19T07:28:55.021Z,24.84
2018-07-19T07:31:24.171Z,23.43
2018-07-19T07:33:53.230Z,22.13
2018-07-19T07:36:29.681Z,23.42
2018-07-19T07:38:58.790Z,25.04
2018-07-19T07:41:30.615Z,25.99
2018-07-19T07:43:59.939Z,26.60
2018-07-19T07:46:30.474Z,26.11
2018-07-19T07:48:59.575Z,24.61
2018-07-19T07:51:28.837Z,23.91
2018-07-19T07:53:57.905Z,23.88
2018-07-19T07:56:29.450Z,24.71
2018-07-19T07:58:58.487Z,25.09
2018-07-19T08:01:27.636Z,23.88
2018-07-19T08:03:56.793Z,22.41
2018-07-19T08:06:30.413Z,22.82
2018-07-19T08:08:59.633Z,21.67
2018-07-19T08:11:28.958Z,20.64
2018-07-19T08:14:01.241Z,20.63
2018-07-19T08:16:30.442Z,20.49
2018-07-19T08:18:59.586Z,19.68
2018-07-19T08:21:28.688Z,18.95
2018-07-19T08:23:57.801Z,18.53
2018-07-19T08:26:26.757Z,18.43
2018-07-19T08:28:55.982Z,19.03
2018-07-19T08:31:25.126Z,19.83
2018-07-19T08:33:55.876Z,19.04
2018-07-19T08:36:27.345Z,17.83
2018-07-19T08:38:56.489Z,16.07
2018-07-19T08:41:28.432Z,16.10
2018-07-19T08:43:57.445Z,16.38
2018-07-19T08:46:29.523Z,15.92
2018-07-19T08:49:01.229Z,14.70
2018-07-19T08:51:33.598Z,14.92
2018-07-19T08:54:08.022Z,14.62
2018-07-19T08:56:37.139Z,14.24
2018-07-19T08:59:07.482Z,13.95
2018-07-19T09:01:37.106Z,13.69
2018-07-19T09:04:12.164Z,14.07
2018-07-19T09:06:44.360Z,13.84
2018-07-19T09:09:13.466Z,15.02
2018-07-19T09:11:53.278Z,15.80
2018-07-19T09:14:20.694Z,15.45
2018-07-19T09:16:54.971Z,15.63
2018-07-19T09:19:24.271Z,14.85
2018-07-19T09:21:53.462Z,14.75
2018-07-19T09:24:22.777Z,15.09
2018-07-19T09:26:53.558Z,15.31
2018-07-19T09:29:21.025Z,13.88
2018-07-19T09:31:50.149Z,15.29
2018-07-19T09:34:19.261Z,15.61
2018-07-19T09:36:48.331Z,16.49
2018-07-19T09:39:17.426Z,17.90
2018-07-19T09:41:46.571Z,19.12
2018-07-19T09:44:17.988Z,19.69
2018-07-19T09:46:50.018Z,19.66
2018-07-19T09:49:22.007Z,18.89
2018-07-19T09:51:51.187Z,18.35
2018-07-19T09:55:03.739Z,17.69
2018-07-19T09:57:35.244Z,17.91
2018-07-19T10:00:04.415Z,19.26
2018-07-19T10:02:33.441Z,19.50
2018-07-19T10:05:02.559Z,19.26
2018-07-19T10:07:34.616Z,21.05
2018-07-19T10:10:03.685Z,21.87
2018-07-19T10:12:34.043Z,21.28
2018-07-19T10:15:03.260Z,20.97
2018-07-19T10:17:32.547Z,19.79
2018-07-19T10:20:01.623Z,19.37
2018-07-19T10:22:32.254Z,19.56
2018-07-19T10:25:01.442Z,19.32
2018-07-19T10:27:33.006Z,19.22
2018-07-19T10:30:04.918Z,19.50
2018-07-19T10:32:34.662Z,18.88
2018-07-19T10:35:05.210Z,17.90
2018-07-19T10:37:36.805Z,18.51
2018-07-19T10:40:05.874Z,18.48
2018-07-19T10:42:37.391Z,19.41
2018-07-19T10:45:06.296Z,20.42
2018-07-19T10:47:35.265Z,20.84
2018-07-19T10:50:04.761Z,21.10
2018-07-19T10:52:33.842Z,21.63
2018-07-19T10:55:02.958Z,21.74
2018-07-19T10:57:34.839Z,22.33
2018-07-19T11:00:06.564Z,22.88
2018-07-19T11:02:35.602Z,23.16
2018-07-19T11:05:05.238Z,23.61
2018-07-19T11:07:34.599Z,23.67
2018-07-19T11:10:03.709Z,24.09
2018-07-19T11:12:33.052Z,24.09
2018-07-19T11:15:02.789Z,24.47
2018-07-19T11:17:31.866Z,24.65
2018-07-19T11:20:00.949Z,25.15
2018-07-19T11:22:30.007Z,25.36
2018-07-19T11:24:59.104Z,25.11
2018-07-19T11:27:28.217Z,25.35
2018-07-19T11:29:59.790Z,25.48
2018-07-19T11:32:28.903Z,25.42
2018-07-19T11:34:57.975Z,25.00
2018-07-19T11:37:27.091Z,25.07
2018-07-19T11:39:56.140Z,25.12
2018-07-19T11:42:25.238Z,25.01
2018-07-19T11:44:54.366Z,24.80
2018-07-19T11:47:25.625Z,24.99
2018-07-19T11:49:54.817Z,24.31
2018-07-19T11:52:23.844Z,23.77
2018-07-19T11:54:52.847Z,22.91
2018-07-19T11:57:22.013Z,21.74
2018-07-19T11:59:53.357Z,20.59
2018-07-19T12:02:22.399Z,20.64
2018-07-19T12:04:54.539Z,20.50
2018-07-19T12:07:28.611Z,20.80
2018-07-19T12:10:00.452Z,20.96
2018-07-19T12:12:32.268Z,21.77
2018-07-19T12:15:01.265Z,22.01
2018-07-19T12:17:31.351Z,22.08
2018-07-19T12:20:00.599Z,23.00
2018-07-19T12:22:29.739Z,22.85
2018-07-19T12:24:58.752Z,23.18
2018-07-19T12:27:27.865Z,23.45
2018-07-19T12:29:56.927Z,23.71
2018-07-19T12:32:26.013Z,23.38
2018-07-19T12:34:57.726Z,23.49
2018-07-19T12:37:26.778Z,23.31
2018-07-19T12:39:55.792Z,22.95
2018-07-19T12:42:25.012Z,23.31
2018-07-19T12:44:54.134Z,23.59
2018-07-19T12:47:23.280Z,22.87
2018-07-19T12:49:52.295Z,23.39
2018-07-19T12:52:21.410Z,23.42
2018-07-19T12:54:53.743Z,23.46
2018-07-19T12:57:22.864Z,23.59
2018-07-19T12:59:54.003Z,24.03
2018-07-19T13:02:23.092Z,24.36
2018-07-19T13:04:56.297Z,24.76
2018-07-19T13:07:28.632Z,24.70
2018-07-19T13:09:57.789Z,24.87
2018-07-19T13:12:27.088Z,24.91
2018-07-19T13:14:57.602Z,24.51
2018-07-19T13:17:35.252Z,24.56
2018-07-19T13:20:05.222Z,24.59
2018-07-19T13:22:34.319Z,24.44
2018-07-19T13:25:04.020Z,24.49
2018-07-19T13:27:36.360Z,24.44
2018-07-19T13:30:06.108Z,24.12
2018-07-19T13:32:43.139Z,23.89
2018-07-19T13:35:18.660Z,23.94
2018-07-19T13:37:48.161Z,23.79
2018-07-19T13:40:17.070Z,23.58
2018-07-19T13:42:45.939Z,23.33
2018-07-19T13:45:14.716Z,23.34
2018-07-19T13:47:43.563Z,23.37
2018-07-19T13:50:12.426Z,23.34
2018-07-19T13:53:28.070Z,23.73
2018-07-19T13:55:56.951Z,23.45
2018-07-19T13:58:25.996Z,23.58
2018-07-19T14:00:55.006Z,23.44
2018-07-19T14:03:24.318Z,23.56
2018-07-19T14:05:53.151Z,23.94
2018-07-19T14:08:22.019Z,24.01
2018-07-19T14:10:50.826Z,24.48
2018-07-19T14:13:19.666Z,24.71
2018-07-19T14:15:48.646Z,25.29
2018-07-19T14:18:34.948Z,25.41
2018-07-19T14:21:03.806Z,25.55
2018-07-19T14:23:32.669Z,25.71
2018-07-19T14:26:01.506Z,25.71
2018-07-19T14:28:30.358Z,25.85
2018-07-19T14:30:59.214Z,25.99
2018-07-19T14:33:28.058Z,25.78
2018-07-19T14:35:56.887Z,26.09
2018-07-19T14:38:25.713Z,26.16
2018-07-19T14:40:54.761Z,25.64
2018-07-19T14:43:23.833Z,25.66
2018-07-19T14:45:52.658Z,26.15
2018-07-19T14:48:21.536Z,26.34
2018-07-19T14:50:50.393Z,26.09
2018-07-19T14:53:19.214Z,26.22
2018-07-19T14:55:48.079Z,26.43
2018-07-19T14:58:16.936Z,26.40
2018-07-19T15:00:45.753Z,26.91
2018-07-19T15:04:09.194Z,26.76
2018-07-19T15:06:38.138Z,26.98
2018-07-19T15:09:11.228Z,26.99
2018-07-19T15:11:40.254Z,27.30
2018-07-19T15:14:09.109Z,27.31
2018-07-19T15:16:37.964Z,27.66
2018-07-19T15:19:06.777Z,27.66
2018-07-19T15:21:35.670Z,27.62
2018-07-19T15:24:04.518Z,27.72
2018-07-19T15:26:33.341Z,27.69
2018-07-19T15:29:02.209Z,27.43
2018-07-19T15:31:31.043Z,27.64
2018-07-19T15:34:00.025Z,27.14
2018-07-19T15:36:28.902Z,27.68
2018-07-19T15:38:57.767Z,27.20
2018-07-19T15:41:26.611Z,27.24
2018-07-19T15:43:55.475Z,27.82
2018-07-19T15:46:32.924Z,27.94
2018-07-19T15:49:01.777Z,28.23
2018-07-19T15:51:30.757Z,28.53
2018-07-19T15:53:59.591Z,29.04
2018-07-19T15:56:28.425Z,29.20
2018-07-19T15:58:57.435Z,29.71
2018-07-19T16:01:26.291Z,29.77
2018-07-19T16:03:55.156Z,30.09
2018-07-19T16:06:24.051Z,30.18
2018-07-19T16:08:52.888Z,30.31
2018-07-19T16:11:21.756Z,30.38
2018-07-19T16:13:51.099Z,30.77
2018-07-19T16:16:19.923Z,31.22
2018-07-19T16:18:48.770Z,31.22
2018-07-19T16:21:17.631Z,31.09
2018-07-19T16:23:46.464Z,30.99
2018-07-19T16:26:15.323Z,31.12
2018-07-19T16:28:44.184Z,31.01
2018-07-19T16:31:13.119Z,30.83
2018-07-19T16:33:41.990Z,30.57
2018-07-19T16:36:10.841Z,30.15
2018-07-19T16:38:39.727Z,29.75
2018-07-19T16:41:08.546Z,29.53
2018-07-19T16:43:37.391Z,29.40
2018-07-19T16:46:06.231Z,29.56
2018-07-19T16:48:35.139Z,29.53
2018-07-19T16:51:03.990Z,29.71
2018-07-19T16:53:33.051Z,29.66
2018-07-19T16:56:01.899Z,29.78
2018-07-19T16:58:30.731Z,29.97
2018-07-19T17:00:59.557Z,30.11
2018-07-19T17:03:28.439Z,30.26
2018-07-19T17:05:57.274Z,29.96
2018-07-19T17:08:26.109Z,30.41
2018-07-19T17:10:54.945Z,30.38
2018-07-19T17:13:23.805Z,30.21
2018-07-19T17:16:10.034Z,30.35
2018-07-19T17:18:38.888Z,30.08
2018-07-19T17:21:07.729Z,30.06
2018-07-19T17:23:36.591Z,30.07
2018-07-19T17:26:05.444Z,30.07
2018-07-19T17:28:34.273Z,29.93
2018-07-19T17:31:03.115Z,29.92
2018-07-19T17:33:31.959Z,29.35
2018-07-19T17:36:00.812Z,29.19
2018-07-19T17:38:31.185Z,28.84
2018-07-19T17:41:00.169Z,29.19
2018-07-19T17:43:29.042Z,28.79
2018-07-19T17:45:57.879Z,28.05
2018-07-19T17:48:26.675Z,27.75
2018-07-19T17:50:55.525Z,27.53
2018-07-19T17:53:24.336Z,27.53
2018-07-19T17:55:53.199Z,27.21
2018-07-19T17:58:22.042Z,27.04
2018-07-19T18:00:50.988Z,26.76
2018-07-19T18:03:19.861Z,26.90
2018-07-19T18:05:48.710Z,27.26
2018-07-19T18:08:17.562Z,27.04
2018-07-19T18:10:46.424Z,27.44
2018-07-19T18:13:15.279Z,27.39
2018-07-19T18:15:44.127Z,27.61
2018-07-19T18:18:12.956Z,27.78
2018-07-19T18:20:41.816Z,27.46
2018-07-19T18:23:19.297Z,27.62
2018-07-19T18:25:48.108Z,27.50
2018-07-19T18:28:16.972Z,27.49
2018-07-19T18:30:45.844Z,27.68
2018-07-19T18:33:14.670Z,27.71
2018-07-19T18:35:43.477Z,27.72
2018-07-19T18:38:12.343Z,27.66
2018-07-19T18:40:41.169Z,27.77
2018-07-19T18:43:10.013Z,28.00
2018-07-19T18:45:39.029Z,28.20
2018-07-19T18:48:08.035Z,28.48
2018-07-19T18:50:36.890Z,28.67
2018-07-19T18:53:05.732Z,28.83
2018-07-19T18:55:34.604Z,28.91
2018-07-19T18:58:03.462Z,29.36
2018-07-19T19:00:32.349Z,29.65
2018-07-19T19:03:01.204Z,30.07
2018-07-19T19:05:30.090Z,30.98
2018-07-19T19:08:56.719Z,31.67
2018-07-19T19:11:25.595Z,32.11
2018-07-19T19:13:54.437Z,32.79
2018-07-19T19:16:23.277Z,33.30
2018-07-19T19:18:52.137Z,33.84
2018-07-19T19:21:20.948Z,34.63
2018-07-19T19:23:49.806Z,35.25
2018-07-19T19:26:18.710Z,35.51
2018-07-19T19:28:47.522Z,35.94
2018-07-19T19:31:25.077Z,36.76
2018-07-19T19:33:53.903Z,37.13
2018-07-19T19:36:22.788Z,37.53
2018-07-19T19:38:51.640Z,38.27
2018-07-19T19:41:20.493Z,38.43
2018-07-19T19:43:49.353Z,38.86
2018-07-19T19:46:18.397Z,39.25
2018-07-19T19:48:47.236Z,39.69
2018-07-19T19:51:16.103Z,40.11
2018-07-19T19:53:48.085Z,40.69
2018-07-19T19:56:16.969Z,41.29
2018-07-19T19:58:45.830Z,42.01
2018-07-19T20:01:14.668Z,42.36
2018-07-19T20:03:43.504Z,42.80
2018-07-19T20:06:12.354Z,42.96
2018-07-19T20:08:41.226Z,43.61
2018-07-19T20:11:10.061Z,43.80
2018-07-19T20:13:38.913Z,44.08
2018-07-19T20:17:03.158Z,44.30
2018-07-19T20:19:31.966Z,44.84
2018-07-19T20:22:00.857Z,45.22
2018-07-19T20:24:29.715Z,45.40
2018-07-19T20:26:58.573Z,45.24
2018-07-19T20:29:27.440Z,45.73
2018-07-19T20:31:56.295Z,45.88
2018-07-19T20:34:25.238Z,46.11
2018-07-19T20:36:54.032Z,46.57
2018-07-19T20:39:24.191Z,47.12
2018-07-19T20:41:53.037Z,47.62
2018-07-19T20:44:21.917Z,47.86
2018-07-19T20:46:50.752Z,48.20
2018-07-19T20:49:19.591Z,48.20
2018-07-19T20:51:48.432Z,48.29
2018-07-19T20:54:17.292Z,49.06
2018-07-19T20:56:46.173Z,48.43
2018-07-19T20:59:15.067Z,49.41
2018-07-19T21:01:45.164Z,49.81
2018-07-19T21:04:14.107Z,50.01
2018-07-19T21:06:42.905Z,50.37
2018-07-19T21:09:12.391Z,50.78
2018-07-19T21:11:41.430Z,51.09
2018-07-19T21:14:10.900Z,51.55
2018-07-19T21:16:40.032Z,51.68
2018-07-19T21:19:08.871Z,52.08
2018-07-19T21:21:37.767Z,52.10
2018-07-19T21:24:06.619Z,52.19
2018-07-19T21:26:35.442Z,52.34
2018-07-19T21:29:04.305Z,52.08
2018-07-19T21:31:33.145Z,52.41
2018-07-19T21:34:01.994Z,51.54
2018-07-19T21:36:30.867Z,52.54
2018-07-19T21:38:59.729Z,52.52
2018-07-19T21:41:28.599Z,52.67
2018-07-19T21:43:57.779Z,53.00
2018-07-19T21:46:26.620Z,53.59
2018-07-19T21:48:55.454Z,53.43
2018-07-19T21:51:24.333Z,54.17
2018-07-19T21:53:53.205Z,54.09
2018-07-19T21:56:22.016Z,54.46
2018-07-19T21:58:50.857Z,54.47
2018-07-19T22:01:19.716Z,54.71
2018-07-19T22:03:48.580Z,54.84
2018-07-19T22:06:26.190Z,54.93
2018-07-19T22:08:55.052Z,54.41
2018-07-19T22:11:23.920Z,55.00
2018-07-19T22:13:52.773Z,55.21
2018-07-19T22:16:21.606Z,55.40
2018-07-19T22:18:50.453Z,55.41
2018-07-19T22:21:19.317Z,55.58
2018-07-19T22:23:48.197Z,56.11
2018-07-19T22:26:17.070Z,56.39
2018-07-19T22:28:49.267Z,56.84
2018-07-19T22:31:18.776Z,56.68
2018-07-19T22:33:47.867Z,56.16
2018-07-19T22:36:16.827Z,56.86
2018-07-19T22:38:45.900Z,56.75
2018-07-19T22:41:14.773Z,57.09
2018-07-19T22:43:43.776Z,57.38
2018-07-19T22:46:12.635Z,57.38
2018-07-19T22:48:41.448Z,57.63
2018-07-19T22:51:11.594Z,57.40
2018-07-19T22:53:40.443Z,58.27
2018-07-19T22:56:09.314Z,58.39
2018-07-19T22:58:38.267Z,58.58
2018-07-19T23:01:07.391Z,57.76
2018-07-19T23:03:36.221Z,58.95
2018-07-19T23:06:05.078Z,58.78
2018-07-19T23:08:33.967Z,58.70
2018-07-19T23:11:02.801Z,58.72
2018-07-19T23:13:31.653Z,58.94
2018-07-19T23:16:00.481Z,59.00
2018-07-19T23:18:29.343Z,59.13
2018-07-19T23:20:58.190Z,58.86
2018-07-19T23:23:27.024Z,59.01
2018-07-19T23:25:55.904Z,58.91
2018-07-19T23:28:24.742Z,59.44
2018-07-19T23:30:53.615Z,59.48
2018-07-19T23:33:24.038Z,59.51
2018-07-19T23:36:04.742Z,60.20
2018-07-19T23:38:40.302Z,60.17
2018-07-19T23:41:40.238Z,60.02
2018-07-19T23:44:13.473Z,60.53
2018-07-19T23:47:04.023Z,59.99
2018-07-19T23:49:32.843Z,60.55
2018-07-19T23:52:01.719Z,61.01
2018-07-19T23:55:24.991Z,61.01
2018-07-19T23:57:53.823Z,60.77
